sensor_id;sensor_type;location;lat;lon;timestamp;P1;durP1;ratioP1;P2;durP2;ratioP2
9188;SDS011;34313;50.780;6.084;2022-10-16T00:00:28;2.00;;;1.40;;
9188;SDS011;34313;50.780;6.084;2022-10-16T00:02:54;3.43;;;1.40;;
9188;SDS011;34313;50.780;6.084;2022-10-16T00:05:20;1.20;;;1.10;;
9188;SDS011;34313;50.780;6.084;2022-10-16T00:07:45;4.13;;;1.87;;
9188;SDS011;34313;50.780;6.084;2022-10-16T00:10:11;5.80;;;1.87;;
9188;SDS011;34313;50.780;6.084;2022-10-16T00:12:36;1.50;;;1.40;;
9188;SDS011;34313;50.780;6.084;2022-10-16T00:15:01;1.30;;;1.20;;
9188;SDS011;34313;50.780;6.084;2022-10-16T00:17:27;2.47;;;1.20;;
9188;SDS011;34313;50.780;6.084;2022-10-16T00:19:54;1.13;;;1.00;;
9188;SDS011;34313;50.780;6.084;2022-10-16T00:22:19;1.83;;;1.10;;
9188;SDS011;34313;50.780;6.084;2022-10-16T00:24:44;1.23;;;1.13;;
9188;SDS011;34313;50.780;6.084;2022-10-16T00:27:10;1.30;;;1.20;;
9188;SDS011;34313;50.780;6.084;2022-10-16T00:29:35;1.20;;;1.10;;
9188;SDS011;34313;50.780;6.084;2022-10-16T00:32:00;1.77;;;1.30;;
9188;SDS011;34313;50.780;6.084;2022-10-16T00:34:25;1.40;;;1.30;;
9188;SDS011;34313;50.780;6.084;2022-10-16T00:36:51;1.30;;;1.10;;
9188;SDS011;34313;50.780;6.084;2022-10-16T00:39:16;1.60;;;1.40;;
9188;SDS011;34313;50.780;6.084;2022-10-16T00:41:41;1.70;;;1.50;;
9188;SDS011;34313;50.780;6.084;2022-10-16T00:47:22;1.70;;;1.10;;
9188;SDS011;34313;50.780;6.084;2022-10-16T00:49:56;2.20;;;1.10;;
9188;SDS011;34313;50.780;6.084;2022-10-16T00:52:39;3.33;;;1.50;;
9188;SDS011;34313;50.780;6.084;2022-10-16T00:55:09;1.07;;;0.97;;
9188;SDS011;34313;50.780;6.084;2022-10-16T00:57:35;1.40;;;1.10;;
9188;SDS011;34313;50.780;6.084;2022-10-16T01:00:06;2.40;;;0.90;;
9188;SDS011;34313;50.780;6.084;2022-10-16T01:02:33;2.33;;;1.17;;
9188;SDS011;34313;50.780;6.084;2022-10-16T01:04:58;1.00;;;1.00;;
9188;SDS011;34313;50.780;6.084;2022-10-16T01:07:34;0.90;;;0.80;;
9188;SDS011;34313;50.780;6.084;2022-10-16T01:12:38;1.17;;;1.07;;
9188;SDS011;34313;50.780;6.084;2022-10-16T01:17:43;1.03;;;0.70;;
9188;SDS011;34313;50.780;6.084;2022-10-16T01:25:42;1.40;;;0.67;;
9188;SDS011;34313;50.780;6.084;2022-10-16T01:28:24;0.60;;;0.60;;
9188;SDS011;34313;50.780;6.084;2022-10-16T01:30:55;2.20;;;1.00;;
9188;SDS011;34313;50.780;6.084;2022-10-16T01:33:27;1.90;;;0.80;;
9188;SDS011;34313;50.780;6.084;2022-10-16T01:36:06;0.87;;;0.83;;
9188;SDS011;34313;50.780;6.084;2022-10-16T01:38:39;0.93;;;0.90;;
9188;SDS011;34313;50.780;6.084;2022-10-16T01:41:08;1.23;;;0.87;;
9188;SDS011;34313;50.780;6.084;2022-10-16T01:43:38;0.70;;;0.70;;
9188;SDS011;34313;50.780;6.084;2022-10-16T01:46:08;3.60;;;0.90;;
9188;SDS011;34313;50.780;6.084;2022-10-16T01:48:35;2.50;;;0.60;;
9188;SDS011;34313;50.780;6.084;2022-10-16T01:51:03;1.93;;;1.00;;
9188;SDS011;34313;50.780;6.084;2022-10-16T01:53:41;0.60;;;0.60;;
9188;SDS011;34313;50.780;6.084;2022-10-16T01:56:10;1.67;;;0.60;;
9188;SDS011;34313;50.780;6.084;2022-10-16T01:58:40;1.10;;;0.77;;
9188;SDS011;34313;50.780;6.084;2022-10-16T02:01:11;0.70;;;0.70;;
9188;SDS011;34313;50.780;6.084;2022-10-16T02:03:39;1.10;;;0.73;;
9188;SDS011;34313;50.780;6.084;2022-10-16T02:06:07;0.80;;;0.70;;
9188;SDS011;34313;50.780;6.084;2022-10-16T02:08:32;0.93;;;0.70;;
9188;SDS011;34313;50.780;6.084;2022-10-16T02:10:59;2.37;;;0.87;;
9188;SDS011;34313;50.780;6.084;2022-10-16T02:13:27;1.03;;;0.67;;
9188;SDS011;34313;50.780;6.084;2022-10-16T02:15:53;0.80;;;0.80;;
9188;SDS011;34313;50.780;6.084;2022-10-16T02:18:18;0.93;;;0.80;;
9188;SDS011;34313;50.780;6.084;2022-10-16T02:20:53;1.50;;;0.97;;
9188;SDS011;34313;50.780;6.084;2022-10-16T02:23:24;1.77;;;1.00;;
9188;SDS011;34313;50.780;6.084;2022-10-16T02:26:13;1.93;;;0.87;;
9188;SDS011;34313;50.780;6.084;2022-10-16T02:28:48;1.67;;;1.07;;
9188;SDS011;34313;50.780;6.084;2022-10-16T02:31:22;1.10;;;0.83;;
9188;SDS011;34313;50.780;6.084;2022-10-16T02:33:52;1.20;;;0.70;;
9188;SDS011;34313;50.780;6.084;2022-10-16T02:36:23;2.13;;;0.80;;
9188;SDS011;34313;50.780;6.084;2022-10-16T02:38:49;2.97;;;1.60;;
9188;SDS011;34313;50.780;6.084;2022-10-16T02:41:16;2.10;;;1.10;;
9188;SDS011;34313;50.780;6.084;2022-10-16T02:43:41;2.93;;;0.70;;
9188;SDS011;34313;50.780;6.084;2022-10-16T02:46:06;1.63;;;1.20;;
9188;SDS011;34313;50.780;6.084;2022-10-16T02:48:32;2.50;;;1.00;;
9188;SDS011;34313;50.780;6.084;2022-10-16T02:50:57;1.63;;;1.20;;
9188;SDS011;34313;50.780;6.084;2022-10-16T02:53:22;1.30;;;0.90;;
9188;SDS011;34313;50.780;6.084;2022-10-16T02:55:48;2.67;;;1.37;;
9188;SDS011;34313;50.780;6.084;2022-10-16T02:58:13;3.80;;;1.20;;
9188;SDS011;34313;50.780;6.084;2022-10-16T03:00:38;1.10;;;0.97;;
9188;SDS011;34313;50.780;6.084;2022-10-16T03:03:04;2.33;;;1.20;;
9188;SDS011;34313;50.780;6.084;2022-10-16T03:05:29;1.63;;;1.23;;
9188;SDS011;34313;50.780;6.084;2022-10-16T03:07:55;1.57;;;1.13;;
9188;SDS011;34313;50.780;6.084;2022-10-16T03:10:20;2.27;;;1.30;;
9188;SDS011;34313;50.780;6.084;2022-10-16T03:12:46;1.20;;;1.10;;
9188;SDS011;34313;50.780;6.084;2022-10-16T03:15:11;1.20;;;1.10;;
9188;SDS011;34313;50.780;6.084;2022-10-16T03:17:36;4.10;;;1.30;;
9188;SDS011;34313;50.780;6.084;2022-10-16T03:20:02;1.73;;;1.20;;
9188;SDS011;34313;50.780;6.084;2022-10-16T03:22:28;5.00;;;1.23;;
9188;SDS011;34313;50.780;6.084;2022-10-16T03:24:54;2.20;;;1.37;;
9188;SDS011;34313;50.780;6.084;2022-10-16T03:27:19;1.13;;;1.03;;
9188;SDS011;34313;50.780;6.084;2022-10-16T03:29:44;4.57;;;1.67;;
9188;SDS011;34313;50.780;6.084;2022-10-16T03:32:10;2.73;;;1.63;;
9188;SDS011;34313;50.780;6.084;2022-10-16T03:34:35;2.97;;;1.50;;
9188;SDS011;34313;50.780;6.084;2022-10-16T03:37:00;2.90;;;1.73;;
9188;SDS011;34313;50.780;6.084;2022-10-16T03:39:26;1.70;;;1.53;;
9188;SDS011;34313;50.780;6.084;2022-10-16T03:41:52;1.73;;;1.50;;
9188;SDS011;34313;50.780;6.084;2022-10-16T03:44:17;1.30;;;1.20;;
9188;SDS011;34313;50.780;6.084;2022-10-16T03:46:42;1.70;;;1.40;;
9188;SDS011;34313;50.780;6.084;2022-10-16T03:49:08;2.57;;;1.37;;
9188;SDS011;34313;50.780;6.084;2022-10-16T03:51:33;3.57;;;1.67;;
9188;SDS011;34313;50.780;6.084;2022-10-16T03:53:58;1.23;;;1.07;;
9188;SDS011;34313;50.780;6.084;2022-10-16T03:56:24;1.33;;;1.23;;
9188;SDS011;34313;50.780;6.084;2022-10-16T03:58:49;1.30;;;1.20;;
9188;SDS011;34313;50.780;6.084;2022-10-16T04:01:15;1.40;;;1.30;;
9188;SDS011;34313;50.780;6.084;2022-10-16T04:03:40;2.80;;;1.70;;
9188;SDS011;34313;50.780;6.084;2022-10-16T04:06:06;2.00;;;1.47;;
9188;SDS011;34313;50.780;6.084;2022-10-16T04:08:31;1.70;;;1.60;;
9188;SDS011;34313;50.780;6.084;2022-10-16T04:10:59;2.90;;;1.50;;
9188;SDS011;34313;50.780;6.084;2022-10-16T04:13:25;2.77;;;1.60;;
9188;SDS011;34313;50.780;6.084;2022-10-16T04:15:50;1.50;;;1.40;;
9188;SDS011;34313;50.780;6.084;2022-10-16T04:18:16;1.50;;;1.40;;
9188;SDS011;34313;50.780;6.084;2022-10-16T04:20:41;2.60;;;1.57;;
9188;SDS011;34313;50.780;6.084;2022-10-16T04:23:06;2.73;;;1.97;;
9188;SDS011;34313;50.780;6.084;2022-10-16T04:25:32;1.67;;;1.57;;
9188;SDS011;34313;50.780;6.084;2022-10-16T04:27:57;1.70;;;1.43;;
9188;SDS011;34313;50.780;6.084;2022-10-16T04:30:23;1.80;;;1.70;;
9188;SDS011;34313;50.780;6.084;2022-10-16T04:32:49;4.53;;;1.57;;
9188;SDS011;34313;50.780;6.084;2022-10-16T04:35:16;3.03;;;1.63;;
9188;SDS011;34313;50.780;6.084;2022-10-16T04:37:42;2.70;;;1.90;;
9188;SDS011;34313;50.780;6.084;2022-10-16T04:40:08;6.13;;;2.07;;
9188;SDS011;34313;50.780;6.084;2022-10-16T04:42:33;1.53;;;1.40;;
9188;SDS011;34313;50.780;6.084;2022-10-16T04:44:59;2.20;;;2.00;;
9188;SDS011;34313;50.780;6.084;2022-10-16T04:47:24;3.00;;;2.30;;
9188;SDS011;34313;50.780;6.084;2022-10-16T04:49:49;2.20;;;2.00;;
9188;SDS011;34313;50.780;6.084;2022-10-16T04:52:15;3.20;;;1.70;;
9188;SDS011;34313;50.780;6.084;2022-10-16T04:54:40;2.13;;;1.90;;
9188;SDS011;34313;50.780;6.084;2022-10-16T04:57:05;2.13;;;1.93;;
9188;SDS011;34313;50.780;6.084;2022-10-16T04:59:31;2.80;;;2.17;;
9188;SDS011;34313;50.780;6.084;2022-10-16T05:01:56;2.43;;;2.10;;
9188;SDS011;34313;50.780;6.084;2022-10-16T05:04:22;2.23;;;1.53;;
9188;SDS011;34313;50.780;6.084;2022-10-16T05:06:47;2.27;;;1.77;;
9188;SDS011;34313;50.780;6.084;2022-10-16T05:09:13;2.93;;;2.17;;
9188;SDS011;34313;50.780;6.084;2022-10-16T05:11:38;1.97;;;1.80;;
9188;SDS011;34313;50.780;6.084;2022-10-16T05:14:03;3.10;;;1.77;;
9188;SDS011;34313;50.780;6.084;2022-10-16T05:16:29;2.30;;;1.90;;
9188;SDS011;34313;50.780;6.084;2022-10-16T05:18:55;2.07;;;1.90;;
9188;SDS011;34313;50.780;6.084;2022-10-16T05:21:21;5.70;;;2.10;;
9188;SDS011;34313;50.780;6.084;2022-10-16T05:23:46;2.80;;;2.20;;
9188;SDS011;34313;50.780;6.084;2022-10-16T05:26:12;6.60;;;2.20;;
9188;SDS011;34313;50.780;6.084;2022-10-16T05:28:37;2.97;;;2.70;;
9188;SDS011;34313;50.780;6.084;2022-10-16T05:31:06;2.40;;;2.00;;
9188;SDS011;34313;50.780;6.084;2022-10-16T05:33:33;4.60;;;2.27;;
9188;SDS011;34313;50.780;6.084;2022-10-16T05:36:02;2.70;;;2.47;;
9188;SDS011;34313;50.780;6.084;2022-10-16T05:38:28;2.40;;;2.00;;
9188;SDS011;34313;50.780;6.084;2022-10-16T05:40:54;1.90;;;1.80;;
9188;SDS011;34313;50.780;6.084;2022-10-16T05:43:19;3.40;;;1.93;;
9188;SDS011;34313;50.780;6.084;2022-10-16T05:45:53;5.23;;;2.00;;
9188;SDS011;34313;50.780;6.084;2022-10-16T05:48:25;2.20;;;2.00;;
9188;SDS011;34313;50.780;6.084;2022-10-16T05:51:04;2.80;;;2.20;;
9188;SDS011;34313;50.780;6.084;2022-10-16T05:53:34;2.10;;;2.00;;
9188;SDS011;34313;50.780;6.084;2022-10-16T05:56:01;2.80;;;1.90;;
9188;SDS011;34313;50.780;6.084;2022-10-16T05:58:34;3.17;;;2.37;;
9188;SDS011;34313;50.780;6.084;2022-10-16T06:01:07;2.10;;;1.90;;
9188;SDS011;34313;50.780;6.084;2022-10-16T06:03:36;2.83;;;2.17;;
9188;SDS011;34313;50.780;6.084;2022-10-16T06:06:11;4.77;;;2.47;;
9188;SDS011;34313;50.780;6.084;2022-10-16T06:08:41;3.20;;;2.90;;
9188;SDS011;34313;50.780;6.084;2022-10-16T06:11:09;4.57;;;2.90;;
9188;SDS011;34313;50.780;6.084;2022-10-16T06:13:36;4.87;;;2.50;;
9188;SDS011;34313;50.780;6.084;2022-10-16T06:16:01;4.00;;;2.70;;
9188;SDS011;34313;50.780;6.084;2022-10-16T06:18:28;6.70;;;3.20;;
9188;SDS011;34313;50.780;6.084;2022-10-16T06:20:54;3.73;;;3.37;;
9188;SDS011;34313;50.780;6.084;2022-10-16T06:23:20;5.00;;;3.50;;
9188;SDS011;34313;50.780;6.084;2022-10-16T06:25:46;4.13;;;2.83;;
9188;SDS011;34313;50.780;6.084;2022-10-16T06:28:13;4.07;;;2.83;;
9188;SDS011;34313;50.780;6.084;2022-10-16T06:30:39;8.13;;;3.00;;
9188;SDS011;34313;50.780;6.084;2022-10-16T06:33:04;4.70;;;3.00;;
9188;SDS011;34313;50.780;6.084;2022-10-16T06:35:30;2.90;;;2.70;;
9188;SDS011;34313;50.780;6.084;2022-10-16T06:37:56;2.90;;;2.53;;
9188;SDS011;34313;50.780;6.084;2022-10-16T06:40:22;3.23;;;2.80;;
9188;SDS011;34313;50.780;6.084;2022-10-16T06:42:47;3.40;;;2.00;;
9188;SDS011;34313;50.780;6.084;2022-10-16T06:45:13;9.60;;;2.00;;
9188;SDS011;34313;50.780;6.084;2022-10-16T06:47:38;2.00;;;1.60;;
9188;SDS011;34313;50.780;6.084;2022-10-16T06:50:03;2.83;;;1.70;;
9188;SDS011;34313;50.780;6.084;2022-10-16T06:52:31;5.57;;;2.07;;
9188;SDS011;34313;50.780;6.084;2022-10-16T06:54:57;4.00;;;1.67;;
9188;SDS011;34313;50.780;6.084;2022-10-16T06:57:22;1.53;;;1.40;;
9188;SDS011;34313;50.780;6.084;2022-10-16T06:59:47;6.57;;;1.70;;
9188;SDS011;34313;50.780;6.084;2022-10-16T07:02:13;2.37;;;1.10;;
9188;SDS011;34313;50.780;6.084;2022-10-16T07:04:38;1.37;;;1.27;;
9188;SDS011;34313;50.780;6.084;2022-10-16T07:07:03;4.60;;;1.60;;
9188;SDS011;34313;50.780;6.084;2022-10-16T07:09:29;1.93;;;1.50;;
9188;SDS011;34313;50.780;6.084;2022-10-16T07:11:54;1.20;;;1.20;;
9188;SDS011;34313;50.780;6.084;2022-10-16T07:14:20;1.73;;;1.30;;
9188;SDS011;34313;50.780;6.084;2022-10-16T07:16:46;2.20;;;1.00;;
9188;SDS011;34313;50.780;6.084;2022-10-16T07:19:12;1.00;;;1.00;;
9188;SDS011;34313;50.780;6.084;2022-10-16T07:21:39;2.40;;;1.40;;
9188;SDS011;34313;50.780;6.084;2022-10-16T07:24:06;3.73;;;1.33;;
9188;SDS011;34313;50.780;6.084;2022-10-16T07:26:36;5.90;;;1.20;;
9188;SDS011;34313;50.780;6.084;2022-10-16T07:29:04;2.30;;;1.33;;
9188;SDS011;34313;50.780;6.084;2022-10-16T07:31:38;1.93;;;1.10;;
9188;SDS011;34313;50.780;6.084;2022-10-16T07:34:04;1.27;;;0.93;;
9188;SDS011;34313;50.780;6.084;2022-10-16T07:36:29;3.07;;;1.20;;
9188;SDS011;34313;50.780;6.084;2022-10-16T07:38:54;1.90;;;1.27;;
9188;SDS011;34313;50.780;6.084;2022-10-16T07:41:20;2.50;;;1.20;;
9188;SDS011;34313;50.780;6.084;2022-10-16T07:43:46;2.73;;;0.90;;
9188;SDS011;34313;50.780;6.084;2022-10-16T07:46:12;2.27;;;1.03;;
9188;SDS011;34313;50.780;6.084;2022-10-16T07:48:38;2.50;;;1.27;;
9188;SDS011;34313;50.780;6.084;2022-10-16T07:51:04;4.50;;;1.10;;
9188;SDS011;34313;50.780;6.084;2022-10-16T07:53:31;3.03;;;1.00;;
9188;SDS011;34313;50.780;6.084;2022-10-16T07:55:58;1.50;;;1.07;;
9188;SDS011;34313;50.780;6.084;2022-10-16T07:58:29;1.77;;;1.00;;
9188;SDS011;34313;50.780;6.084;2022-10-16T08:00:55;4.73;;;0.90;;
9188;SDS011;34313;50.780;6.084;2022-10-16T08:03:21;0.90;;;0.87;;
9188;SDS011;34313;50.780;6.084;2022-10-16T08:05:46;1.20;;;0.70;;
9188;SDS011;34313;50.780;6.084;2022-10-16T08:08:15;1.53;;;1.00;;
9188;SDS011;34313;50.780;6.084;2022-10-16T08:10:41;0.83;;;0.83;;
9188;SDS011;34313;50.780;6.084;2022-10-16T08:13:07;2.60;;;0.90;;
9188;SDS011;34313;50.780;6.084;2022-10-16T08:15:33;1.80;;;1.07;;
9188;SDS011;34313;50.780;6.084;2022-10-16T08:17:59;1.80;;;0.90;;
9188;SDS011;34313;50.780;6.084;2022-10-16T08:20:26;1.40;;;0.80;;
9188;SDS011;34313;50.780;6.084;2022-10-16T08:22:53;1.77;;;1.00;;
9188;SDS011;34313;50.780;6.084;2022-10-16T08:25:19;2.00;;;1.00;;
9188;SDS011;34313;50.780;6.084;2022-10-16T08:27:45;0.93;;;0.73;;
9188;SDS011;34313;50.780;6.084;2022-10-16T08:30:10;2.30;;;1.00;;
9188;SDS011;34313;50.780;6.084;2022-10-16T08:32:36;2.67;;;0.90;;
9188;SDS011;34313;50.780;6.084;2022-10-16T08:35:02;4.63;;;0.93;;
9188;SDS011;34313;50.780;6.084;2022-10-16T08:37:30;3.00;;;0.90;;
9188;SDS011;34313;50.780;6.084;2022-10-16T08:39:57;1.20;;;1.00;;
9188;SDS011;34313;50.780;6.084;2022-10-16T08:42:32;2.43;;;0.73;;
9188;SDS011;34313;50.780;6.084;2022-10-16T08:45:06;2.63;;;1.03;;
9188;SDS011;34313;50.780;6.084;2022-10-16T08:50:13;2.50;;;0.97;;
9188;SDS011;34313;50.780;6.084;2022-10-16T08:52:46;6.43;;;1.00;;
9188;SDS011;34313;50.780;6.084;2022-10-16T08:55:28;2.50;;;0.90;;
9188;SDS011;34313;50.780;6.084;2022-10-16T08:57:54;0.90;;;0.77;;
9188;SDS011;34313;50.780;6.084;2022-10-16T09:00:20;2.83;;;1.03;;
9188;SDS011;34313;50.780;6.084;2022-10-16T09:02:51;3.03;;;0.80;;
9188;SDS011;34313;50.780;6.084;2022-10-16T09:13:29;2.60;;;1.10;;
9188;SDS011;34313;50.780;6.084;2022-10-16T09:21:39;1.90;;;0.67;;
9188;SDS011;34313;50.780;6.084;2022-10-16T09:26:40;3.23;;;1.20;;
9188;SDS011;34313;50.780;6.084;2022-10-16T09:29:06;5.00;;;1.10;;
9188;SDS011;34313;50.780;6.084;2022-10-16T09:31:31;2.50;;;0.90;;
9188;SDS011;34313;50.780;6.084;2022-10-16T09:34:00;3.20;;;1.20;;
9188;SDS011;34313;50.780;6.084;2022-10-16T09:36:34;1.30;;;0.80;;
9188;SDS011;34313;50.780;6.084;2022-10-16T09:39:05;1.53;;;0.90;;
9188;SDS011;34313;50.780;6.084;2022-10-16T09:41:33;1.93;;;0.93;;
9188;SDS011;34313;50.780;6.084;2022-10-16T09:44:01;2.23;;;0.90;;
9188;SDS011;34313;50.780;6.084;2022-10-16T09:48:59;0.90;;;0.70;;
9188;SDS011;34313;50.780;6.084;2022-10-16T09:51:32;2.47;;;0.80;;
9188;SDS011;34313;50.780;6.084;2022-10-16T09:56:33;1.00;;;0.70;;
9188;SDS011;34313;50.780;6.084;2022-10-16T09:59:13;5.30;;;0.70;;
9188;SDS011;34313;50.780;6.084;2022-10-16T10:01:40;1.50;;;0.77;;
9188;SDS011;34313;50.780;6.084;2022-10-16T10:04:07;0.90;;;0.53;;
9188;SDS011;34313;50.780;6.084;2022-10-16T10:06:41;2.83;;;0.90;;
9188;SDS011;34313;50.780;6.084;2022-10-16T10:19:29;1.60;;;0.70;;
9188;SDS011;34313;50.780;6.084;2022-10-16T10:21:55;2.20;;;0.97;;
9188;SDS011;34313;50.780;6.084;2022-10-16T10:24:20;3.20;;;1.10;;
9188;SDS011;34313;50.780;6.084;2022-10-16T10:26:48;2.27;;;1.17;;
9188;SDS011;34313;50.780;6.084;2022-10-16T10:29:23;4.33;;;0.83;;
9188;SDS011;34313;50.780;6.084;2022-10-16T10:34:41;1.50;;;1.00;;
9188;SDS011;34313;50.780;6.084;2022-10-16T10:45:20;1.77;;;1.00;;
9188;SDS011;34313;50.780;6.084;2022-10-16T10:47:47;1.90;;;0.83;;
9188;SDS011;34313;50.780;6.084;2022-10-16T10:50:39;1.93;;;0.77;;
9188;SDS011;34313;50.780;6.084;2022-10-16T11:01:14;2.10;;;0.97;;
9188;SDS011;34313;50.780;6.084;2022-10-16T11:06:33;0.87;;;0.60;;
9188;SDS011;34313;50.780;6.084;2022-10-16T11:14:30;1.03;;;0.77;;
9188;SDS011;34313;50.780;6.084;2022-10-16T11:19:58;1.30;;;0.80;;
9188;SDS011;34313;50.780;6.084;2022-10-16T11:22:37;0.80;;;0.70;;
9188;SDS011;34313;50.780;6.084;2022-10-16T11:30:32;1.47;;;0.70;;
9188;SDS011;34313;50.780;6.084;2022-10-16T11:38:29;2.03;;;0.87;;
9188;SDS011;34313;50.780;6.084;2022-10-16T11:40:57;0.60;;;0.60;;
9188;SDS011;34313;50.780;6.084;2022-10-16T11:43:41;2.40;;;0.80;;
9188;SDS011;34313;50.780;6.084;2022-10-16T11:46:18;2.30;;;0.80;;
9188;SDS011;34313;50.780;6.084;2022-10-16T11:48:54;1.47;;;1.03;;
9188;SDS011;34313;50.780;6.084;2022-10-16T11:54:51;1.23;;;0.70;;
9188;SDS011;34313;50.780;6.084;2022-10-16T11:57:24;5.83;;;0.93;;
9188;SDS011;34313;50.780;6.084;2022-10-16T11:59:55;2.80;;;0.80;;
9188;SDS011;34313;50.780;6.084;2022-10-16T12:02:49;3.70;;;0.90;;
9188;SDS011;34313;50.780;6.084;2022-10-16T12:05:51;2.33;;;1.13;;
9188;SDS011;34313;50.780;6.084;2022-10-16T12:08:18;1.17;;;0.70;;
9188;SDS011;34313;50.780;6.084;2022-10-16T12:10:44;2.17;;;0.90;;
9188;SDS011;34313;50.780;6.084;2022-10-16T12:13:31;6.00;;;0.90;;
9188;SDS011;34313;50.780;6.084;2022-10-16T12:16:06;2.40;;;0.80;;
9188;SDS011;34313;50.780;6.084;2022-10-16T12:18:38;1.73;;;0.83;;
9188;SDS011;34313;50.780;6.084;2022-10-16T12:21:04;2.10;;;1.00;;
9188;SDS011;34313;50.780;6.084;2022-10-16T12:23:53;1.80;;;0.87;;
9188;SDS011;34313;50.780;6.084;2022-10-16T12:26:27;3.03;;;1.00;;
9188;SDS011;34313;50.780;6.084;2022-10-16T12:29:12;4.63;;;0.90;;
9188;SDS011;34313;50.780;6.084;2022-10-16T12:31:46;4.33;;;0.70;;
9188;SDS011;34313;50.780;6.084;2022-10-16T12:34:18;1.70;;;0.90;;
9188;SDS011;34313;50.780;6.084;2022-10-16T12:37:07;3.83;;;1.20;;
9188;SDS011;34313;50.780;6.084;2022-10-16T12:39:35;3.13;;;1.20;;
9188;SDS011;34313;50.780;6.084;2022-10-16T12:42:05;1.23;;;0.70;;
9188;SDS011;34313;50.780;6.084;2022-10-16T12:44:45;2.07;;;0.97;;
9188;SDS011;34313;50.780;6.084;2022-10-16T12:47:20;3.23;;;0.53;;
9188;SDS011;34313;50.780;6.084;2022-10-16T12:50:02;2.70;;;1.10;;
9188;SDS011;34313;50.780;6.084;2022-10-16T12:52:35;2.47;;;0.80;;
9188;SDS011;34313;50.780;6.084;2022-10-16T12:55:03;1.57;;;0.90;;
9188;SDS011;34313;50.780;6.084;2022-10-16T12:57:43;5.10;;;0.93;;
9188;SDS011;34313;50.780;6.084;2022-10-16T13:00:24;2.00;;;1.00;;
9188;SDS011;34313;50.780;6.084;2022-10-16T13:08:35;1.30;;;1.07;;
9188;SDS011;34313;50.780;6.084;2022-10-16T13:20:04;1.60;;;0.80;;
9188;SDS011;34313;50.780;6.084;2022-10-16T13:25:31;3.57;;;1.50;;
9188;SDS011;34313;50.780;6.084;2022-10-16T13:28:27;2.03;;;1.00;;
9188;SDS011;34313;50.780;6.084;2022-10-16T13:30:56;2.77;;;1.13;;
9188;SDS011;34313;50.780;6.084;2022-10-16T13:36:05;1.93;;;1.17;;
9188;SDS011;34313;50.780;6.084;2022-10-16T13:38:32;1.47;;;1.00;;
9188;SDS011;34313;50.780;6.084;2022-10-16T13:41:13;1.83;;;1.33;;
9188;SDS011;34313;50.780;6.084;2022-10-16T13:43:44;1.97;;;1.10;;
9188;SDS011;34313;50.780;6.084;2022-10-16T13:46:15;1.20;;;0.80;;
9188;SDS011;34313;50.780;6.084;2022-10-16T13:48:43;1.70;;;1.00;;
9188;SDS011;34313;50.780;6.084;2022-10-16T13:51:13;1.17;;;1.00;;
9188;SDS011;34313;50.780;6.084;2022-10-16T13:53:40;1.47;;;0.90;;
9188;SDS011;34313;50.780;6.084;2022-10-16T13:56:09;7.93;;;1.40;;
9188;SDS011;34313;50.780;6.084;2022-10-16T13:58:36;2.07;;;0.80;;
9188;SDS011;34313;50.780;6.084;2022-10-16T14:01:06;1.70;;;0.83;;
9188;SDS011;34313;50.780;6.084;2022-10-16T14:03:42;2.20;;;1.20;;
9188;SDS011;34313;50.780;6.084;2022-10-16T14:06:13;2.50;;;1.00;;
9188;SDS011;34313;50.780;6.084;2022-10-16T14:08:43;1.70;;;1.23;;
9188;SDS011;34313;50.780;6.084;2022-10-16T14:11:11;1.40;;;0.83;;
9188;SDS011;34313;50.780;6.084;2022-10-16T14:13:38;2.30;;;1.30;;
9188;SDS011;34313;50.780;6.084;2022-10-16T14:16:09;2.60;;;1.07;;
9188;SDS011;34313;50.780;6.084;2022-10-16T14:18:41;1.93;;;1.20;;
9188;SDS011;34313;50.780;6.084;2022-10-16T14:21:13;2.07;;;1.00;;
9188;SDS011;34313;50.780;6.084;2022-10-16T14:23:41;1.43;;;1.00;;
9188;SDS011;34313;50.780;6.084;2022-10-16T14:28:33;0.87;;;0.80;;
9188;SDS011;34313;50.780;6.084;2022-10-16T14:31:00;2.40;;;0.90;;
9188;SDS011;34313;50.780;6.084;2022-10-16T14:36:03;0.70;;;0.63;;
9188;SDS011;34313;50.780;6.084;2022-10-16T14:38:28;1.07;;;0.83;;
9188;SDS011;34313;50.780;6.084;2022-10-16T14:40:54;2.63;;;0.73;;
9188;SDS011;34313;50.780;6.084;2022-10-16T14:43:26;2.40;;;0.97;;
9188;SDS011;34313;50.780;6.084;2022-10-16T14:45:57;0.87;;;0.60;;
9188;SDS011;34313;50.780;6.084;2022-10-16T14:48:22;0.70;;;0.63;;
9188;SDS011;34313;50.780;6.084;2022-10-16T14:50:49;2.80;;;0.87;;
9188;SDS011;34313;50.780;6.084;2022-10-16T14:53:15;1.40;;;0.80;;
9188;SDS011;34313;50.780;6.084;2022-10-16T14:55:40;2.07;;;1.00;;
9188;SDS011;34313;50.780;6.084;2022-10-16T14:58:16;2.57;;;0.63;;
9188;SDS011;34313;50.780;6.084;2022-10-16T15:00:47;3.33;;;0.90;;
9188;SDS011;34313;50.780;6.084;2022-10-16T15:03:13;1.73;;;1.07;;
9188;SDS011;34313;50.780;6.084;2022-10-16T15:05:39;2.43;;;0.90;;
9188;SDS011;34313;50.780;6.084;2022-10-16T15:08:05;1.23;;;0.90;;
9188;SDS011;34313;50.780;6.084;2022-10-16T15:10:31;0.70;;;0.70;;
9188;SDS011;34313;50.780;6.084;2022-10-16T15:13:01;1.00;;;0.80;;
9188;SDS011;34313;50.780;6.084;2022-10-16T15:17:53;1.17;;;0.80;;
9188;SDS011;34313;50.780;6.084;2022-10-16T15:20:22;1.37;;;0.80;;
9188;SDS011;34313;50.780;6.084;2022-10-16T15:22:56;1.10;;;0.80;;
9188;SDS011;34313;50.780;6.084;2022-10-16T15:25:36;1.30;;;1.20;;
9188;SDS011;34313;50.780;6.084;2022-10-16T15:28:04;1.00;;;0.80;;
9188;SDS011;34313;50.780;6.084;2022-10-16T15:30:31;3.27;;;1.10;;
9188;SDS011;34313;50.780;6.084;2022-10-16T15:32:57;2.77;;;0.93;;
9188;SDS011;34313;50.780;6.084;2022-10-16T15:35:23;1.10;;;0.90;;
9188;SDS011;34313;50.780;6.084;2022-10-16T15:37:48;4.40;;;0.80;;
9188;SDS011;34313;50.780;6.084;2022-10-16T15:40:14;0.97;;;0.90;;
9188;SDS011;34313;50.780;6.084;2022-10-16T15:42:40;0.73;;;0.67;;
9188;SDS011;34313;50.780;6.084;2022-10-16T15:45:06;1.00;;;0.90;;
9188;SDS011;34313;50.780;6.084;2022-10-16T15:47:32;3.00;;;1.00;;
9188;SDS011;34313;50.780;6.084;2022-10-16T15:49:58;1.23;;;1.07;;
9188;SDS011;34313;50.780;6.084;2022-10-16T15:52:23;1.43;;;1.10;;
9188;SDS011;34313;50.780;6.084;2022-10-16T15:54:49;1.27;;;0.97;;
9188;SDS011;34313;50.780;6.084;2022-10-16T15:57:14;4.57;;;1.27;;
9188;SDS011;34313;50.780;6.084;2022-10-16T15:59:39;4.13;;;2.73;;
9188;SDS011;34313;50.780;6.084;2022-10-16T16:02:05;5.27;;;2.80;;
9188;SDS011;34313;50.780;6.084;2022-10-16T16:04:30;4.30;;;2.60;;
9188;SDS011;34313;50.780;6.084;2022-10-16T16:06:56;2.90;;;2.07;;
9188;SDS011;34313;50.780;6.084;2022-10-16T16:09:21;2.40;;;1.60;;
9188;SDS011;34313;50.780;6.084;2022-10-16T16:11:47;2.03;;;1.57;;
9188;SDS011;34313;50.780;6.084;2022-10-16T16:14:12;1.60;;;1.50;;
9188;SDS011;34313;50.780;6.084;2022-10-16T16:16:38;1.77;;;1.40;;
9188;SDS011;34313;50.780;6.084;2022-10-16T16:19:04;4.40;;;2.00;;
9188;SDS011;34313;50.780;6.084;2022-10-16T16:21:31;2.60;;;2.07;;
9188;SDS011;34313;50.780;6.084;2022-10-16T16:23:57;3.03;;;1.87;;
9188;SDS011;34313;50.780;6.084;2022-10-16T16:26:23;2.50;;;1.77;;
9188;SDS011;34313;50.780;6.084;2022-10-16T16:28:53;7.90;;;2.47;;
9188;SDS011;34313;50.780;6.084;2022-10-16T16:31:20;3.40;;;2.50;;
9188;SDS011;34313;50.780;6.084;2022-10-16T16:33:49;4.97;;;3.07;;
9188;SDS011;34313;50.780;6.084;2022-10-16T16:36:16;3.10;;;2.27;;
9188;SDS011;34313;50.780;6.084;2022-10-16T16:38:43;2.63;;;2.10;;
9188;SDS011;34313;50.780;6.084;2022-10-16T16:43:37;2.30;;;1.90;;
9188;SDS011;34313;50.780;6.084;2022-10-16T16:46:03;2.10;;;1.70;;
9188;SDS011;34313;50.780;6.084;2022-10-16T16:48:28;4.40;;;2.17;;
9188;SDS011;34313;50.780;6.084;2022-10-16T16:50:54;2.90;;;2.17;;
9188;SDS011;34313;50.780;6.084;2022-10-16T16:53:19;2.63;;;2.07;;
9188;SDS011;34313;50.780;6.084;2022-10-16T16:55:44;4.77;;;3.20;;
9188;SDS011;34313;50.780;6.084;2022-10-16T16:58:10;4.67;;;2.67;;
9188;SDS011;34313;50.780;6.084;2022-10-16T17:00:35;4.33;;;2.73;;
9188;SDS011;34313;50.780;6.084;2022-10-16T17:03:01;2.17;;;1.90;;
9188;SDS011;34313;50.780;6.084;2022-10-16T17:05:26;2.30;;;1.93;;
9188;SDS011;34313;50.780;6.084;2022-10-16T17:07:51;6.80;;;1.63;;
9188;SDS011;34313;50.780;6.084;2022-10-16T17:10:18;2.13;;;1.60;;